createdAt,value
2023-01-08T00:00:46.175Z,98547.66
2023-01-08T00:03:13.863Z,98548.84
2023-01-08T00:05:40.776Z,98543.86
2023-01-08T00:08:08.672Z,98543.05
2023-01-08T00:10:36.485Z,98544.53
2023-01-08T00:13:03.843Z,98541.42
2023-01-08T00:15:30.738Z,98536.34
2023-01-08T00:17:58.307Z,98536.00
2023-01-08T00:20:25.748Z,98536.68
2023-01-08T00:22:52.962Z,98530.13
2023-01-08T00:25:20.102Z,98530.77
2023-01-08T00:27:46.885Z,98530.64
2023-01-08T00:30:14.044Z,98532.00
2023-01-08T00:32:40.881Z,98535.04
2023-01-08T00:35:08.030Z,98530.31
2023-01-08T00:37:34.771Z,98526.23
2023-01-08T00:40:01.588Z,98518.89
2023-01-08T00:42:28.321Z,98512.25
2023-01-08T00:44:55.139Z,98504.23
2023-01-08T00:47:21.843Z,98501.79
2023-01-08T00:49:48.754Z,98503.48
2023-01-08T00:52:15.522Z,98496.70
2023-01-08T00:54:42.290Z,98493.05
2023-01-08T00:57:08.966Z,98502.38
2023-01-08T00:59:35.741Z,98502.59
2023-01-08T01:02:02.604Z,98507.37
2023-01-08T01:04:29.581Z,98513.27
2023-01-08T01:06:56.335Z,98517.27
2023-01-08T01:09:23.137Z,98515.77
2023-01-08T01:11:49.904Z,98515.73
2023-01-08T01:14:17.143Z,98511.84
2023-01-08T01:16:44.165Z,98503.83
2023-01-08T01:19:11.105Z,98510.08
2023-01-08T01:21:38.055Z,98507.35
2023-01-08T01:24:06.776Z,98503.20
2023-01-08T01:26:34.794Z,98500.53
2023-01-08T01:29:02.156Z,98491.70
2023-01-08T01:31:31.113Z,98486.42
2023-01-08T01:33:58.377Z,98483.27
2023-01-08T01:36:26.499Z,98482.59
2023-01-08T01:38:56.074Z,98474.42
2023-01-08T01:41:32.575Z,98475.70
2023-01-08T01:44:20.703Z,98473.77
2023-01-08T01:46:48.495Z,98469.85
2023-01-08T01:49:21.273Z,98465.57
2023-01-08T01:51:53.335Z,98464.86
2023-01-08T01:54:20.982Z,98461.47
2023-01-08T01:56:48.400Z,98460.05
2023-01-08T01:59:16.197Z,98455.58
2023-01-08T02:01:43.423Z,98453.20
2023-01-08T02:04:12.479Z,98454.10
2023-01-08T02:06:46.596Z,98452.52
2023-01-08T02:09:29.552Z,98448.23
2023-01-08T02:12:17.603Z,98447.20
2023-01-08T02:15:15.096Z,98437.47
2023-01-08T02:17:43.905Z,98436.68
2023-01-08T02:20:20.241Z,98436.05
2023-01-08T02:22:54.589Z,98440.21
2023-01-08T02:25:46.007Z,98442.80
2023-01-08T02:28:15.538Z,98439.41
2023-01-08T02:30:43.337Z,98440.69
2023-01-08T02:33:11.789Z,98439.98
2023-01-08T02:35:46.189Z,98440.23
2023-01-08T02:38:15.904Z,98437.29
2023-01-08T02:41:00.912Z,98438.92
2023-01-08T02:43:39.426Z,98440.20
2023-01-08T02:46:11.662Z,98443.96
2023-01-08T02:48:47.394Z,98443.42
2023-01-08T02:51:24.194Z,98442.15
2023-01-08T02:53:57.804Z,98444.08
2023-01-08T02:56:28.605Z,98436.42
2023-01-08T02:58:57.066Z,98440.30
2023-01-08T03:01:26.768Z,98437.38
2023-01-08T03:03:59.163Z,98434.77
2023-01-08T03:06:28.838Z,98434.61
2023-01-08T03:08:55.682Z,98435.09
2023-01-08T03:11:25.081Z,98431.54
2023-01-08T03:14:06.941Z,98427.02
2023-01-08T03:16:38.163Z,98426.98
2023-01-08T03:19:12.938Z,98424.13
2023-01-08T03:21:42.557Z,98420.45
2023-01-08T03:24:13.579Z,98416.45
2023-01-08T03:26:41.894Z,98412.21
2023-01-08T03:29:13.747Z,98410.95
2023-01-08T03:31:41.548Z,98407.80
2023-01-08T03:34:09.409Z,98405.65
2023-01-08T03:36:39.227Z,98413.88
2023-01-08T03:39:14.243Z,98414.63
2023-01-08T03:41:42.302Z,98409.80
2023-01-08T03:44:09.128Z,98403.48
2023-01-08T03:46:42.323Z,98406.15
2023-01-08T03:49:10.334Z,98406.82
2023-01-08T03:51:47.131Z,98402.58
2023-01-08T03:54:18.245Z,98409.04
2023-01-08T03:56:45.699Z,98400.79
2023-01-08T03:59:13.696Z,98398.73
2023-01-08T04:01:40.632Z,98402.14
2023-01-08T04:04:08.499Z,98397.01
2023-01-08T04:06:35.248Z,98400.86
2023-01-08T04:09:02.332Z,98401.33
2023-01-08T04:11:29.217Z,98400.94
2023-01-08T04:13:56.084Z,98389.71
2023-01-08T04:16:23.659Z,98384.42
2023-01-08T04:18:50.584Z,98388.30
2023-01-08T04:21:17.710Z,98387.20
2023-01-08T04:23:44.638Z,98379.23
2023-01-08T04:26:11.603Z,98381.66
2023-01-08T04:28:38.437Z,98389.06
2023-01-08T04:31:07.361Z,98396.36
2023-01-08T04:33:34.365Z,98397.89
2023-01-08T04:36:01.297Z,98397.72
2023-01-08T04:38:28.057Z,98392.05
2023-01-08T04:40:59.306Z,98391.29
2023-01-08T04:43:26.794Z,98391.14
2023-01-08T04:45:53.626Z,98390.52
2023-01-08T04:48:20.397Z,98390.68
2023-01-08T04:50:47.176Z,98391.23
2023-01-08T04:53:13.899Z,98392.30
2023-01-08T04:55:40.769Z,98387.39
2023-01-08T04:58:07.501Z,98381.96
2023-01-08T05:00:34.673Z,98383.41
2023-01-08T05:03:01.550Z,98379.00
2023-01-08T05:05:29.041Z,98365.77
2023-01-08T05:07:55.782Z,98357.84
2023-01-08T05:10:22.548Z,98353.04
2023-01-08T05:12:49.364Z,98352.95
2023-01-08T05:15:16.254Z,98352.97
2023-01-08T05:17:43.015Z,98357.44
2023-01-08T05:20:10.170Z,98363.74
2023-01-08T05:22:36.896Z,98362.23
2023-01-08T05:25:03.769Z,98368.58
2023-01-08T05:27:30.583Z,98364.09
2023-01-08T05:29:57.329Z,98357.17
2023-01-08T05:32:24.090Z,98360.48
2023-01-08T05:34:50.970Z,98363.97
2023-01-08T05:37:17.688Z,98366.80
2023-01-08T05:39:44.433Z,98357.64
2023-01-08T05:42:11.150Z,98356.63
2023-01-08T05:44:37.908Z,98361.44
2023-01-08T05:47:04.766Z,98363.47
2023-01-08T05:49:31.515Z,98361.17
2023-01-08T05:51:58.209Z,98358.40
2023-01-08T05:54:24.999Z,98357.82
2023-01-08T05:56:52.015Z,98355.50
2023-01-08T05:59:18.905Z,98354.38
2023-01-08T06:01:45.724Z,98349.79
2023-01-08T06:04:12.579Z,98347.05
2023-01-08T06:06:39.368Z,98345.52
2023-01-08T06:09:06.193Z,98341.17
2023-01-08T06:11:32.950Z,98338.09
2023-01-08T06:13:59.714Z,98344.71
2023-01-08T06:16:26.452Z,98341.67
2023-01-08T06:18:53.403Z,98349.88
2023-01-08T06:21:20.273Z,98353.44
2023-01-08T06:23:47.020Z,98349.69
2023-01-08T06:26:13.760Z,98350.96
2023-01-08T06:28:40.533Z,98348.77
2023-01-08T06:31:07.315Z,98353.74
2023-01-08T06:33:34.270Z,98351.79
2023-01-08T06:36:02.500Z,98352.02
2023-01-08T06:38:34.498Z,98350.38
2023-01-08T06:41:06.233Z,98357.33
2023-01-08T06:43:36.284Z,98353.33
2023-01-08T06:46:04.925Z,98346.51
2023-01-08T06:48:31.844Z,98341.16
2023-01-08T06:51:01.052Z,98344.42
2023-01-08T06:53:28.115Z,98341.13
2023-01-08T06:55:57.233Z,98348.72
2023-01-08T06:58:25.432Z,98345.72
2023-01-08T07:00:52.291Z,98347.48
2023-01-08T07:03:19.311Z,98353.52
2023-01-08T07:05:46.378Z,98349.75
2023-01-08T07:08:14.985Z,98343.85
2023-01-08T07:10:42.517Z,98342.85
2023-01-08T07:13:09.694Z,98342.84
2023-01-08T07:15:37.503Z,98335.45
2023-01-08T07:18:06.054Z,98329.98
2023-01-08T07:20:34.042Z,98328.09
2023-01-08T07:23:03.088Z,98333.42
2023-01-08T07:25:30.862Z,98339.95
2023-01-08T07:27:58.817Z,98333.17
2023-01-08T07:30:30.305Z,98323.66
2023-01-08T07:33:00.597Z,98323.44
2023-01-08T07:35:28.328Z,98325.73
2023-01-08T07:37:55.899Z,98327.23
2023-01-08T07:40:22.733Z,98319.84
2023-01-08T07:42:57.605Z,98311.98
2023-01-08T07:45:24.340Z,98306.33
2023-01-08T07:47:51.103Z,98305.90
2023-01-08T07:50:17.834Z,98300.67
2023-01-08T07:52:44.683Z,98299.73
2023-01-08T07:55:11.471Z,98294.79
2023-01-08T07:57:38.381Z,98293.75
2023-01-08T08:00:05.954Z,98289.57
2023-01-08T08:02:33.899Z,98283.60
2023-01-08T08:05:00.817Z,98285.45
2023-01-08T08:07:30.728Z,98284.57
2023-01-08T08:09:57.733Z,98283.52
2023-01-08T08:12:24.685Z,98280.05
2023-01-08T08:14:51.515Z,98275.23
2023-01-08T08:17:18.445Z,98267.90
2023-01-08T08:19:45.738Z,98263.84
2023-01-08T08:22:13.758Z,98250.39
2023-01-08T08:24:40.989Z,98245.53
2023-01-08T08:27:07.900Z,98247.52
2023-01-08T08:29:34.701Z,98242.27
2023-01-08T08:32:01.417Z,98243.46
2023-01-08T08:34:28.176Z,98245.23
2023-01-08T08:36:55.089Z,98243.92
2023-01-08T08:39:22.003Z,98238.38
2023-01-08T08:41:48.899Z,98238.16
2023-01-08T08:44:15.663Z,98239.15
2023-01-08T08:46:42.468Z,98241.23
2023-01-08T08:49:09.265Z,98234.63
2023-01-08T08:51:35.999Z,98235.25
2023-01-08T08:54:02.767Z,98239.27
2023-01-08T08:56:30.097Z,98245.20
2023-01-08T08:58:58.181Z,98242.83
2023-01-08T09:01:25.336Z,98240.88
2023-01-08T09:03:52.128Z,98237.75
2023-01-08T09:06:19.019Z,98242.69
2023-01-08T09:08:45.899Z,98244.05
2023-01-08T09:11:14.390Z,98239.91
2023-01-08T09:13:41.446Z,98236.35
2023-01-08T09:16:08.230Z,98231.05
2023-01-08T09:18:35.144Z,98224.40
2023-01-08T09:21:09.342Z,98225.31
2023-01-08T09:23:36.056Z,98222.75
2023-01-08T09:26:04.590Z,98214.66
2023-01-08T09:28:31.606Z,98207.63
2023-01-08T09:31:02.958Z,98202.56
2023-01-08T09:33:30.520Z,98201.88
2023-01-08T09:35:57.633Z,98195.05
2023-01-08T09:38:24.505Z,98193.27
2023-01-08T09:40:58.268Z,98186.88
2023-01-08T09:43:28.546Z,98175.59
2023-01-08T09:45:59.681Z,98168.71
2023-01-08T09:48:33.213Z,98163.44
2023-01-08T09:51:00.188Z,98160.91
2023-01-08T09:53:27.489Z,98154.48
2023-01-08T09:56:11.085Z,98148.20
2023-01-08T09:58:46.495Z,98139.27
2023-01-08T10:01:15.728Z,98134.77
2023-01-08T10:03:47.676Z,98122.15
2023-01-08T10:06:16.690Z,98115.90
2023-01-08T10:11:16.883Z,98118.40
2023-01-08T10:13:49.607Z,98112.69
2023-01-08T10:16:28.657Z,98107.83
2023-01-08T10:18:55.530Z,98105.23
2023-01-08T10:21:29.967Z,98102.88
2023-01-08T10:23:57.121Z,98099.29
2023-01-08T10:26:27.829Z,98092.77
2023-01-08T10:29:23.942Z,98090.87
2023-01-08T10:31:54.063Z,98085.69
2023-01-08T10:34:26.711Z,98079.36
2023-01-08T10:36:55.122Z,98075.05
2023-01-08T10:39:27.383Z,98073.65
2023-01-08T10:41:57.933Z,98072.55
2023-01-08T10:44:25.775Z,98071.35
2023-01-08T10:46:57.767Z,98068.15
2023-01-08T10:49:25.557Z,98062.14
2023-01-08T10:51:53.981Z,98057.91
2023-01-08T10:54:36.638Z,98057.23
2023-01-08T10:57:20.695Z,98059.64
2023-01-08T10:59:47.479Z,98060.32
2023-01-08T11:02:25.775Z,98060.49
2023-01-08T11:04:53.065Z,98063.02
2023-01-08T11:07:23.197Z,98062.98
2023-01-08T11:09:51.906Z,98058.95
2023-01-08T11:12:33.171Z,98061.42
2023-01-08T11:15:01.318Z,98058.73
2023-01-08T11:17:28.415Z,98060.63
2023-01-08T11:19:55.973Z,98052.70
2023-01-08T11:22:25.293Z,98046.89
2023-01-08T11:24:53.752Z,98042.56
2023-01-08T11:27:25.023Z,98045.04
2023-01-08T11:30:07.112Z,98044.21
2023-01-08T11:32:54.927Z,98035.85
2023-01-08T11:35:37.243Z,98024.73
2023-01-08T11:38:07.044Z,98024.98
2023-01-08T11:40:37.882Z,98024.50
2023-01-08T11:43:12.231Z,98024.54
2023-01-08T11:45:54.695Z,98025.70
2023-01-08T11:48:51.281Z,98018.19
2023-01-08T11:51:41.048Z,98015.61
2023-01-08T11:54:21.870Z,98007.61
2023-01-08T11:57:11.437Z,98002.06
2023-01-08T12:00:02.750Z,97997.09
2023-01-08T12:02:46.096Z,97986.02
2023-01-08T12:05:28.237Z,97994.98
2023-01-08T12:08:02.766Z,97992.17
2023-01-08T12:10:39.200Z,97990.22
2023-01-08T12:13:36.702Z,97987.09
2023-01-08T12:16:15.757Z,97986.09
2023-01-08T12:19:17.530Z,97983.61
2023-01-08T12:21:52.174Z,97983.40
2023-01-08T12:24:42.202Z,97979.15
2023-01-08T12:27:19.422Z,97970.03
2023-01-08T12:29:53.537Z,97969.20
2023-01-08T12:32:30.232Z,97965.14
2023-01-08T12:35:07.789Z,97965.06
2023-01-08T12:37:55.329Z,97958.96
2023-01-08T12:40:27.068Z,97956.77
2023-01-08T12:43:01.109Z,97956.04
2023-01-08T12:45:31.140Z,97953.61
2023-01-08T12:48:05.502Z,97955.17
2023-01-08T12:50:41.159Z,97960.70
2023-01-08T12:53:19.122Z,97958.40
2023-01-08T12:55:59.929Z,97953.71
2023-01-08T12:58:57.911Z,97949.84
2023-01-08T13:01:43.922Z,97953.48
2023-01-08T13:04:12.199Z,97958.17
2023-01-08T13:06:50.592Z,97960.39
2023-01-08T13:09:24.037Z,97959.27
2023-01-08T13:11:54.071Z,97961.15
2023-01-08T13:14:22.055Z,97956.80
2023-01-08T13:17:03.959Z,97959.63
2023-01-08T13:19:41.438Z,97959.82
2023-01-08T13:22:32.429Z,97961.26
2023-01-08T13:25:15.387Z,97959.48
2023-01-08T13:27:43.175Z,97958.71
2023-01-08T13:30:40.676Z,97965.12
2023-01-08T13:33:24.095Z,97961.55
2023-01-08T13:35:50.877Z,97951.38
2023-01-08T13:38:19.865Z,97958.76
2023-01-08T13:40:50.064Z,97957.05
2023-01-08T13:43:21.251Z,97957.30
2023-01-08T13:45:58.725Z,97971.20
2023-01-08T13:48:30.984Z,97974.47
2023-01-08T13:50:58.112Z,97970.47
2023-01-08T13:53:25.288Z,97976.72
2023-01-08T13:56:00.282Z,97977.95
2023-01-08T13:58:36.361Z,97978.30
2023-01-08T14:01:05.003Z,97981.59
2023-01-08T14:03:37.561Z,97985.70
2023-01-08T14:06:06.173Z,97983.53
2023-01-08T14:08:33.480Z,97985.36
2023-01-08T14:11:00.595Z,97989.66
2023-01-08T14:13:30.669Z,97986.89
2023-01-08T14:16:01.092Z,97983.04
2023-01-08T14:18:28.553Z,97971.24
2023-01-08T14:20:56.245Z,97969.39
2023-01-08T14:23:27.868Z,97977.06
2023-01-08T14:25:55.092Z,97977.48
2023-01-08T14:28:23.157Z,97976.92
2023-01-08T14:30:53.721Z,97982.81
2023-01-08T14:33:25.152Z,97989.00
2023-01-08T14:35:52.356Z,97984.83
2023-01-08T14:38:19.153Z,97986.25
2023-01-08T14:40:51.231Z,97986.61
2023-01-08T14:43:21.182Z,97984.90
2023-01-08T14:45:51.318Z,97984.34
2023-01-08T14:48:23.256Z,97983.33
2023-01-08T14:51:00.960Z,97982.63
2023-01-08T14:53:33.282Z,97977.67
2023-01-08T14:56:01.221Z,97970.69
2023-01-08T14:58:35.947Z,97969.95
2023-01-08T15:01:09.719Z,97971.36
2023-01-08T15:03:40.703Z,97972.45
2023-01-08T15:06:07.697Z,97978.60
2023-01-08T15:08:39.979Z,97976.61
2023-01-08T15:11:19.817Z,97977.64
2023-01-08T15:13:48.324Z,97967.27
2023-01-08T15:16:29.605Z,97953.95
2023-01-08T15:19:13.720Z,97940.65
2023-01-08T15:21:47.815Z,97936.90
2023-01-08T15:24:31.769Z,97936.51
2023-01-08T15:27:00.257Z,97945.66
2023-01-08T15:29:33.815Z,97943.81
2023-01-08T15:32:12.286Z,97940.40
2023-01-08T15:34:39.821Z,97931.81
2023-01-08T15:37:06.878Z,97927.58
2023-01-08T15:39:33.781Z,97922.27
2023-01-08T15:42:33.939Z,97922.73
2023-01-08T15:45:00.691Z,97923.27
2023-01-08T15:47:27.457Z,97927.63
2023-01-08T15:49:54.686Z,97931.19
2023-01-08T15:52:38.157Z,97936.30
2023-01-08T15:55:05.331Z,97935.23
2023-01-08T15:57:32.386Z,97927.59
2023-01-08T15:59:59.345Z,97927.48
2023-01-08T16:02:26.301Z,97928.09
2023-01-08T16:04:54.549Z,97936.23
2023-01-08T16:07:22.004Z,97935.98
2023-01-08T16:09:49.031Z,97932.35
2023-01-08T16:12:15.835Z,97931.52
2023-01-08T16:14:42.617Z,97936.17
2023-01-08T16:17:10.115Z,97929.91
2023-01-08T16:19:36.969Z,97928.75
2023-01-08T16:22:04.810Z,97929.29
2023-01-08T16:24:31.736Z,97925.39
2023-01-08T16:26:58.483Z,97920.54
2023-01-08T16:29:26.040Z,97922.08
2023-01-08T16:31:53.056Z,97920.88
2023-01-08T16:34:20.003Z,97925.63
2023-01-08T16:36:48.294Z,97920.10
2023-01-08T16:39:15.156Z,97917.45
2023-01-08T16:41:42.237Z,97918.93
2023-01-08T16:44:27.056Z,97914.89
2023-01-08T16:46:55.360Z,97913.13
2023-01-08T16:49:22.416Z,97912.15
2023-01-08T16:51:49.222Z,97916.05
2023-01-08T16:54:17.093Z,97915.41
2023-01-08T16:56:43.962Z,97913.23
2023-01-08T16:59:22.196Z,97915.21
2023-01-08T17:01:50.096Z,97917.02
2023-01-08T17:04:17.172Z,97918.42
2023-01-08T17:06:44.084Z,97912.54
2023-01-08T17:09:11.826Z,97911.59
2023-01-08T17:11:39.280Z,97917.80
2023-01-08T17:14:06.093Z,97917.11
2023-01-08T17:16:32.994Z,97920.14
2023-01-08T17:18:59.841Z,97924.59
2023-01-08T17:21:26.662Z,97923.06
2023-01-08T17:23:53.440Z,97922.80
2023-01-08T17:26:20.414Z,97917.37
2023-01-08T17:28:47.476Z,97913.41
2023-01-08T17:31:18.564Z,97916.31
2023-01-08T17:33:50.536Z,97915.86
2023-01-08T17:36:20.847Z,97911.87
2023-01-08T17:38:49.844Z,97914.98
2023-01-08T17:41:33.324Z,97916.27
2023-01-08T17:44:00.428Z,97913.47
2023-01-08T17:46:28.109Z,97911.45
2023-01-08T17:48:54.897Z,97910.98
2023-01-08T17:51:21.784Z,97906.77
2023-01-08T17:53:48.608Z,97903.81
2023-01-08T17:56:15.346Z,97904.02
2023-01-08T17:58:42.056Z,97905.56
2023-01-08T18:01:12.467Z,97910.03
2023-01-08T18:03:39.461Z,97913.67
2023-01-08T18:06:10.197Z,97912.75
2023-01-08T18:08:37.558Z,97910.64
2023-01-08T18:11:05.913Z,97910.22
2023-01-08T18:13:33.746Z,97904.32
2023-01-08T18:16:03.916Z,97900.21
2023-01-08T18:18:30.798Z,97896.21
2023-01-08T18:20:57.689Z,97904.70
2023-01-08T18:23:24.836Z,97899.95
2023-01-08T18:25:51.667Z,97897.70
2023-01-08T18:28:19.310Z,97891.86
2023-01-08T18:31:01.426Z,97899.54
2023-01-08T18:33:28.336Z,97898.19
2023-01-08T18:35:55.277Z,97898.88
2023-01-08T18:38:23.418Z,97895.67
2023-01-08T18:40:50.280Z,97888.94
2023-01-08T18:43:17.235Z,97888.14
2023-01-08T18:45:44.184Z,97883.91
2023-01-08T18:48:11.394Z,97882.52
2023-01-08T18:50:39.240Z,97876.00
2023-01-08T18:53:07.055Z,97874.23
2023-01-08T18:55:33.973Z,97874.63
2023-01-08T18:58:00.958Z,97871.42
2023-01-08T19:00:27.850Z,97865.70
2023-01-08T19:02:55.746Z,97862.10
2023-01-08T19:05:23.573Z,97857.64
2023-01-08T19:07:50.692Z,97856.86
2023-01-08T19:10:17.766Z,97846.11
2023-01-08T19:12:44.933Z,97841.55
2023-01-08T19:15:12.272Z,97833.39
2023-01-08T19:17:39.954Z,97831.56
2023-01-08T19:20:07.722Z,97832.02
2023-01-08T19:22:34.929Z,97829.42
2023-01-08T19:25:01.713Z,97824.70
2023-01-08T19:27:28.544Z,97824.17
2023-01-08T19:29:55.741Z,97819.09
2023-01-08T19:32:39.406Z,97818.45
2023-01-08T19:35:06.831Z,97813.95
2023-01-08T19:37:34.217Z,97816.79
2023-01-08T19:40:02.391Z,97812.06
2023-01-08T19:42:44.654Z,97809.23
2023-01-08T19:45:11.591Z,97811.17
2023-01-08T19:47:38.391Z,97805.70
2023-01-08T19:50:06.393Z,97798.27
2023-01-08T19:52:33.235Z,97790.83
2023-01-08T19:55:01.568Z,97793.46
2023-01-08T19:57:28.725Z,97787.29
2023-01-08T19:59:55.572Z,97788.64
2023-01-08T20:02:22.811Z,97785.52
2023-01-08T20:04:49.736Z,97780.42
2023-01-08T20:07:16.461Z,97779.64
2023-01-08T20:09:43.690Z,97781.61
2023-01-08T20:12:11.197Z,97774.39
2023-01-08T20:14:38.127Z,97778.17
2023-01-08T20:17:05.159Z,97772.97
2023-01-08T20:19:32.132Z,97769.41
2023-01-08T20:21:59.240Z,97774.32
2023-01-08T20:24:26.250Z,97768.83
2023-01-08T20:27:08.700Z,97766.21
2023-01-08T20:29:36.003Z,97762.48
2023-01-08T20:32:04.953Z,97759.30
2023-01-08T20:34:32.635Z,97751.21
2023-01-08T20:37:00.199Z,97751.67
2023-01-08T20:39:27.414Z,97747.55
2023-01-08T20:42:03.711Z,97746.73
2023-01-08T20:44:33.180Z,97740.73
2023-01-08T20:47:01.032Z,97736.86
2023-01-08T20:49:28.011Z,97736.09
2023-01-08T20:51:59.919Z,97734.89
2023-01-08T20:54:29.105Z,97730.27
2023-01-08T20:56:57.477Z,97723.17
2023-01-08T20:59:24.929Z,97721.52
2023-01-08T21:01:52.823Z,97713.55
2023-01-08T21:04:20.812Z,97705.98
2023-01-08T21:06:47.873Z,97707.14
2023-01-08T21:09:16.636Z,97706.02
2023-01-08T21:11:43.761Z,97707.42
2023-01-08T21:14:11.191Z,97705.82
2023-01-08T21:16:40.727Z,97702.92
2023-01-08T21:19:10.495Z,97703.52
2023-01-08T21:21:40.157Z,97705.15
2023-01-08T21:24:09.266Z,97700.75
2023-01-08T21:26:39.212Z,97690.94
2023-01-08T21:29:07.524Z,97685.88
2023-01-08T21:31:35.185Z,97683.38
2023-01-08T21:34:03.621Z,97680.13
2023-01-08T21:36:31.921Z,97677.55
2023-01-08T21:39:00.457Z,97666.26
2023-01-08T21:41:43.850Z,97670.67
2023-01-08T21:44:29.269Z,97666.84
2023-01-08T21:46:58.206Z,97659.42
2023-01-08T21:49:25.624Z,97665.02
2023-01-08T21:52:08.128Z,97664.42
2023-01-08T21:54:34.895Z,97662.89
2023-01-08T21:57:01.653Z,97658.33
2023-01-08T21:59:28.412Z,97648.29
2023-01-08T22:01:55.238Z,97656.19
2023-01-08T22:04:22.161Z,97642.48
2023-01-08T22:06:48.987Z,97635.04
2023-01-08T22:09:15.714Z,97636.61
2023-01-08T22:11:42.457Z,97637.27
2023-01-08T22:14:09.475Z,97630.84
2023-01-08T22:16:36.272Z,97621.71
2023-01-08T22:19:03.525Z,97615.00
2023-01-08T22:21:30.347Z,97622.02
2023-01-08T22:23:57.111Z,97625.05
2023-01-08T22:26:24.269Z,97625.11
2023-01-08T22:28:51.149Z,97614.00
2023-01-08T22:31:17.981Z,97613.73
2023-01-08T22:33:44.909Z,97617.02
2023-01-08T22:36:13.792Z,97611.16
2023-01-08T22:38:40.907Z,97608.17
2023-01-08T22:41:15.941Z,97602.35
2023-01-08T22:43:42.800Z,97605.45
2023-01-08T22:46:12.422Z,97602.85
2023-01-08T22:48:39.803Z,97610.68
2023-01-08T22:51:06.706Z,97607.46
2023-01-08T22:53:33.843Z,97605.80
2023-01-08T22:56:00.617Z,97602.77
2023-01-08T22:58:28.210Z,97596.54
2023-01-08T23:00:55.001Z,97595.85
2023-01-08T23:03:21.785Z,97589.19
2023-01-08T23:05:48.513Z,97585.68
2023-01-08T23:08:15.293Z,97582.68
2023-01-08T23:10:42.684Z,97587.70
2023-01-08T23:13:09.426Z,97591.58
2023-01-08T23:15:36.367Z,97587.56
2023-01-08T23:18:03.220Z,97584.98
2023-01-08T23:20:30.001Z,97582.27
2023-01-08T23:22:56.724Z,97577.90
2023-01-08T23:25:23.722Z,97577.23
2023-01-08T23:27:51.385Z,97569.35
2023-01-08T23:30:18.255Z,97570.48
2023-01-08T23:32:45.387Z,97566.86
2023-01-08T23:35:12.199Z,97561.69
2023-01-08T23:40:23.298Z,97552.69
2023-01-08T23:42:50.002Z,97543.55
2023-01-08T23:45:16.851Z,97543.52
2023-01-08T23:47:43.655Z,97544.97
2023-01-08T23:50:10.908Z,97542.48
2023-01-08T23:52:37.695Z,97532.64
2023-01-08T23:55:04.939Z,97531.26
2023-01-08T23:57:31.713Z,97525.41
2023-01-08T23:59:58.569Z,97530.25
